weather station
Area: 11014 km2
The highest point: Tok (865 m.s.l.)
Total stations: 43
Stations online: 42
Stations offline: 1
Current weather
2°C

Meteorological map - weather stations in Středočeský

. The meteorological maps show weather information from WARIO weather stations

Weather stations Středočeský

 UpdatesNameStatusTemperatureHumidityWind speedWind direction
21.11.2018 13:58Jílové u Prahy - Borek2.6 °C83.7 %0.0 m/s NW
21.11.2018 13:58Králův Dvůr1.2 °C98.3 %1.7 m/s NE
21.11.2018 13:58Chotětov3.1 °C88.3 %0.8 m/s E
21.11.2018 13:58Davle2.4 °C95.7 %1.1 m/s N
21.11.2018 13:58Opolany2.4 °C76.2 %0.0 m/s E
21.11.2018 13:54Holubice1.6 °C100.0 %2.9 m/s W
21.11.2018 13:58Hostín u Vojkovic2.8 °C99.7 %2.3 m/s E
21.11.2018 13:59Hovorčovice1.8 °C90.3 %1.0 m/s NW
21.11.2018 13:58Sedlčany2.7 °C89.2 %1.8 m/s SE
21.11.2018 13:58Mělník3.8 °C83.8 %1.4 m/s NE
21.11.2018 13:58Jiřetice0.9 °C100.0 %1.7 m/s E
21.11.2018 13:58Kojetice2.9 °C87.8 %1.6 m/s SE
21.11.2018 13:59Ledečky2.5 °C90.8 %2.3 m/s E
21.11.2018 13:58Libeř3.0 °C96.4 %0.9 m/s N
21.11.2018 13:58Sazená1.6 °C99.3 %3.4 m/s E
21.11.2018 13:58Malý Újezd2.7 °C93.7 %1.8 m/s E
21.11.2018 13:58Zdice3.0 °C98.5 %1.3 m/s NW
21.11.2018 13:57Mělník4.0 °C84.7 %0.5 m/s NE
21.11.2018 13:58Jince0.9 °C95.8 %1.1 m/s SE
21.11.2018 13:59Olešná-0.3 °C100.0 %1.2 m/s NE
21.11.2018 13:58Srby0.4 °C100.0 %1.1 m/s N
21.11.2018 13:59Kralupy nad Vltavou2.8 °C93.4 %2.2 m/s SE
21.11.2018 13:58Mrač1.9 °C99.9 %1.7 m/s NE
21.11.2018 13:58Velvary3.3 °C87.0 %2.2 m/s E
21.11.2018 13:58Dolní Jirčany1.2 °C100.0 %0.0 m/s NE
21.11.2018 13:58Mladá Boleslav3.3 °C100.0 %0.0 m/s W
21.11.2018 13:58Líbeznice1.7 °C93.5 %2.3 m/s E
21.11.2018 13:58Mšecké Žehrovice-0.7 °C100.0 %1.5 m/s N
21.11.2018 13:58Odolena voda2.0 °C97.9 %2.9 m/s E
21.11.2018 13:58Oseček4.1 °C100.0 %0.6 m/s E
21.11.2018 13:40Pátek3.1 °C83.4 %1.3 m/s SE
21.11.2018 13:58Husinec-Řež2.2 °C93.8 %0.7 m/s N
21.11.2018 13:58Semice2.7 °C85.8 %1.0 m/s N
21.11.2018 13:58Slaný0.8 °C100.0 %0.8 m/s NE
21.11.2018 13:58Svojetice-0.6 °C95.0 %2.0 m/s NE
21.11.2018 13:59Kosmonosy2.4 °C89.5 %1.4 m/s NW
21.11.2018 13:58Toušice1.2 °C85.7 %1.2 m/s SW
21.11.2018 13:58Srby0.3 °C100.0 %1.7 m/s E
21.11.2018 13:58Vestec0.8 °C99.9 %2.1 m/s SE
21.11.2018 13:58Nebřich2.3 °C95.3 %0.0 m/s W
21.11.2018 13:59Vrbčany1.8 °C86.6 %1.8 m/s SE
21.11.2018 13:58Všetaty2.7 °C91.5 %2.3 m/s SE
21.11.2018 13:58Zibohlavy1.1 °C99.9 %1.6 m/s E
Email notifications
Enter your email address to subscribe to notifications about news at warioweather.com. Your email address will not be used for any purpose other than sending these emails and will not be provided to any third party. The subscription can be ended at any time.
All data are only indicative. The portal administrator has no responsibility for potentially incorrect data and related consequences. Publishing or further sharing of content from www.warioweather.com is only allowed with written consent from WANET s.r.o.